sensor_id;sensor_type;location;lat;lon;timestamp;temperature;humidity
31695;DHT22;18289;51.330;4.946;2024-03-17T00:00:15;8.00;99.90
31695;DHT22;18289;51.330;4.946;2024-03-17T00:02:44;7.90;99.90
31695;DHT22;18289;51.330;4.946;2024-03-17T00:05:09;8.00;99.90
31695;DHT22;18289;51.330;4.946;2024-03-17T00:07:35;7.90;99.90
31695;DHT22;18289;51.330;4.946;2024-03-17T00:10:01;7.90;99.90
31695;DHT22;18289;51.330;4.946;2024-03-17T00:12:26;7.90;99.90
31695;DHT22;18289;51.330;4.946;2024-03-17T00:14:52;7.90;99.90
31695;DHT22;18289;51.330;4.946;2024-03-17T00:17:18;7.90;99.90
31695;DHT22;18289;51.330;4.946;2024-03-17T00:19:46;7.90;99.90
31695;DHT22;18289;51.330;4.946;2024-03-17T00:22:12;7.90;99.90
31695;DHT22;18289;51.330;4.946;2024-03-17T00:24:40;7.90;99.90
31695;DHT22;18289;51.330;4.946;2024-03-17T00:27:06;7.90;99.90
31695;DHT22;18289;51.330;4.946;2024-03-17T00:29:32;7.90;99.90
31695;DHT22;18289;51.330;4.946;2024-03-17T00:31:58;7.90;99.90
31695;DHT22;18289;51.330;4.946;2024-03-17T00:34:24;8.00;99.90
31695;DHT22;18289;51.330;4.946;2024-03-17T00:36:50;7.90;99.90
31695;DHT22;18289;51.330;4.946;2024-03-17T00:39:17;8.00;99.90
31695;DHT22;18289;51.330;4.946;2024-03-17T00:41:44;8.00;99.90
31695;DHT22;18289;51.330;4.946;2024-03-17T00:44:09;8.10;99.90
31695;DHT22;18289;51.330;4.946;2024-03-17T00:46:35;8.10;99.90
31695;DHT22;18289;51.330;4.946;2024-03-17T00:49:01;8.20;99.90
31695;DHT22;18289;51.330;4.946;2024-03-17T00:51:26;8.20;99.90
31695;DHT22;18289;51.330;4.946;2024-03-17T00:53:52;8.20;99.90
31695;DHT22;18289;51.330;4.946;2024-03-17T00:56:18;8.20;99.90
31695;DHT22;18289;51.330;4.946;2024-03-17T00:58:44;8.20;99.90
31695;DHT22;18289;51.330;4.946;2024-03-17T01:01:13;8.30;99.90
31695;DHT22;18289;51.330;4.946;2024-03-17T01:03:39;8.30;99.90
31695;DHT22;18289;51.330;4.946;2024-03-17T01:06:04;8.30;99.90
31695;DHT22;18289;51.330;4.946;2024-03-17T01:08:30;8.30;99.90
31695;DHT22;18289;51.330;4.946;2024-03-17T01:10:56;8.20;99.90
31695;DHT22;18289;51.330;4.946;2024-03-17T01:13:23;8.20;99.90
31695;DHT22;18289;51.330;4.946;2024-03-17T01:15:51;8.20;99.90
31695;DHT22;18289;51.330;4.946;2024-03-17T01:18:18;8.20;99.90
31695;DHT22;18289;51.330;4.946;2024-03-17T01:20:44;8.20;99.90
31695;DHT22;18289;51.330;4.946;2024-03-17T01:23:10;8.20;99.90
31695;DHT22;18289;51.330;4.946;2024-03-17T01:25:36;8.20;99.90
31695;DHT22;18289;51.330;4.946;2024-03-17T01:28:05;8.10;99.90
31695;DHT22;18289;51.330;4.946;2024-03-17T01:30:32;8.10;99.90
31695;DHT22;18289;51.330;4.946;2024-03-17T01:33:00;8.10;99.90
31695;DHT22;18289;51.330;4.946;2024-03-17T01:35:26;8.10;99.90
31695;DHT22;18289;51.330;4.946;2024-03-17T01:37:52;8.10;99.90
31695;DHT22;18289;51.330;4.946;2024-03-17T01:40:18;8.00;99.90
31695;DHT22;18289;51.330;4.946;2024-03-17T01:42:43;8.00;99.90
31695;DHT22;18289;51.330;4.946;2024-03-17T01:45:28;8.00;99.90
31695;DHT22;18289;51.330;4.946;2024-03-17T01:47:55;8.10;99.90
31695;DHT22;18289;51.330;4.946;2024-03-17T01:50:31;8.00;99.90
31695;DHT22;18289;51.330;4.946;2024-03-17T01:52:59;8.10;99.90
31695;DHT22;18289;51.330;4.946;2024-03-17T01:55:28;8.10;99.90
31695;DHT22;18289;51.330;4.946;2024-03-17T01:57:54;8.10;99.90
31695;DHT22;18289;51.330;4.946;2024-03-17T02:00:20;8.10;99.90
31695;DHT22;18289;51.330;4.946;2024-03-17T02:02:46;8.10;99.90
31695;DHT22;18289;51.330;4.946;2024-03-17T02:05:12;8.20;99.90
31695;DHT22;18289;51.330;4.946;2024-03-17T02:07:38;8.20;99.90
31695;DHT22;18289;51.330;4.946;2024-03-17T02:10:04;8.10;99.90
31695;DHT22;18289;51.330;4.946;2024-03-17T02:12:31;8.10;99.90
31695;DHT22;18289;51.330;4.946;2024-03-17T02:14:58;8.10;99.90
31695;DHT22;18289;51.330;4.946;2024-03-17T02:17:24;8.10;99.90
31695;DHT22;18289;51.330;4.946;2024-03-17T02:19:51;8.20;99.90
31695;DHT22;18289;51.330;4.946;2024-03-17T02:22:17;8.10;99.90
31695;DHT22;18289;51.330;4.946;2024-03-17T02:24:44;8.20;99.90
31695;DHT22;18289;51.330;4.946;2024-03-17T02:27:09;8.20;99.90
31695;DHT22;18289;51.330;4.946;2024-03-17T02:29:36;8.10;99.90
31695;DHT22;18289;51.330;4.946;2024-03-17T02:32:06;8.10;99.90
31695;DHT22;18289;51.330;4.946;2024-03-17T02:34:35;8.10;99.90
31695;DHT22;18289;51.330;4.946;2024-03-17T02:37:02;8.10;99.90
31695;DHT22;18289;51.330;4.946;2024-03-17T02:39:29;8.10;99.90
31695;DHT22;18289;51.330;4.946;2024-03-17T02:42:03;8.10;99.90
31695;DHT22;18289;51.330;4.946;2024-03-17T02:44:31;8.00;99.90
31695;DHT22;18289;51.330;4.946;2024-03-17T02:47:01;8.00;99.90
31695;DHT22;18289;51.330;4.946;2024-03-17T02:49:28;8.00;99.90
31695;DHT22;18289;51.330;4.946;2024-03-17T02:52:01;8.00;99.90
31695;DHT22;18289;51.330;4.946;2024-03-17T02:54:27;8.00;99.90
31695;DHT22;18289;51.330;4.946;2024-03-17T02:56:52;8.00;99.90
31695;DHT22;18289;51.330;4.946;2024-03-17T02:59:18;8.00;99.90
31695;DHT22;18289;51.330;4.946;2024-03-17T03:01:44;8.00;99.90
31695;DHT22;18289;51.330;4.946;2024-03-17T03:04:10;8.00;99.90
31695;DHT22;18289;51.330;4.946;2024-03-17T03:06:37;8.00;99.90
31695;DHT22;18289;51.330;4.946;2024-03-17T03:09:03;7.90;99.90
31695;DHT22;18289;51.330;4.946;2024-03-17T03:11:35;7.90;99.90
31695;DHT22;18289;51.330;4.946;2024-03-17T03:14:01;7.90;99.90
31695;DHT22;18289;51.330;4.946;2024-03-17T03:16:27;7.90;99.90
31695;DHT22;18289;51.330;4.946;2024-03-17T03:18:53;7.80;99.90
31695;DHT22;18289;51.330;4.946;2024-03-17T03:21:19;7.70;99.90
31695;DHT22;18289;51.330;4.946;2024-03-17T03:23:47;7.70;99.90
31695;DHT22;18289;51.330;4.946;2024-03-17T03:26:13;7.70;99.90
31695;DHT22;18289;51.330;4.946;2024-03-17T03:28:39;7.60;99.90
31695;DHT22;18289;51.330;4.946;2024-03-17T03:31:04;7.50;99.90
31695;DHT22;18289;51.330;4.946;2024-03-17T03:35:58;7.40;99.90
31695;DHT22;18289;51.330;4.946;2024-03-17T03:38:24;7.30;99.90
31695;DHT22;18289;51.330;4.946;2024-03-17T03:40:50;7.30;99.90
31695;DHT22;18289;51.330;4.946;2024-03-17T03:43:18;7.30;99.90
31695;DHT22;18289;51.330;4.946;2024-03-17T03:45:43;7.20;99.90
31695;DHT22;18289;51.330;4.946;2024-03-17T03:48:09;7.10;99.90
31695;DHT22;18289;51.330;4.946;2024-03-17T03:50:36;7.10;99.90
31695;DHT22;18289;51.330;4.946;2024-03-17T03:53:03;7.10;99.90
31695;DHT22;18289;51.330;4.946;2024-03-17T03:55:28;7.10;99.90
31695;DHT22;18289;51.330;4.946;2024-03-17T03:57:55;7.10;99.90
31695;DHT22;18289;51.330;4.946;2024-03-17T04:00:21;7.10;99.90
31695;DHT22;18289;51.330;4.946;2024-03-17T04:02:48;7.10;99.90
31695;DHT22;18289;51.330;4.946;2024-03-17T04:05:15;7.10;99.90
31695;DHT22;18289;51.330;4.946;2024-03-17T04:07:40;7.10;99.90
31695;DHT22;18289;51.330;4.946;2024-03-17T04:10:09;7.10;99.90
31695;DHT22;18289;51.330;4.946;2024-03-17T04:12:35;7.10;99.90
31695;DHT22;18289;51.330;4.946;2024-03-17T04:15:01;7.10;99.90
31695;DHT22;18289;51.330;4.946;2024-03-17T04:17:27;7.20;99.90
31695;DHT22;18289;51.330;4.946;2024-03-17T04:19:54;7.20;99.90
31695;DHT22;18289;51.330;4.946;2024-03-17T04:22:20;7.20;99.90
31695;DHT22;18289;51.330;4.946;2024-03-17T04:24:48;7.30;99.90
31695;DHT22;18289;51.330;4.946;2024-03-17T04:27:21;7.40;99.90
31695;DHT22;18289;51.330;4.946;2024-03-17T04:29:47;7.40;99.90
31695;DHT22;18289;51.330;4.946;2024-03-17T04:32:13;7.40;99.90
31695;DHT22;18289;51.330;4.946;2024-03-17T04:34:39;7.40;99.90
31695;DHT22;18289;51.330;4.946;2024-03-17T04:37:05;7.50;99.90
31695;DHT22;18289;51.330;4.946;2024-03-17T04:39:31;7.50;99.90
31695;DHT22;18289;51.330;4.946;2024-03-17T04:41:57;7.50;99.90
31695;DHT22;18289;51.330;4.946;2024-03-17T04:44:23;7.50;99.90
31695;DHT22;18289;51.330;4.946;2024-03-17T04:46:49;7.50;99.90
31695;DHT22;18289;51.330;4.946;2024-03-17T04:49:14;7.50;99.90
31695;DHT22;18289;51.330;4.946;2024-03-17T04:51:40;7.60;99.90
31695;DHT22;18289;51.330;4.946;2024-03-17T04:54:05;7.60;99.90
31695;DHT22;18289;51.330;4.946;2024-03-17T04:56:32;7.50;99.90
31695;DHT22;18289;51.330;4.946;2024-03-17T04:58:58;7.60;99.90
31695;DHT22;18289;51.330;4.946;2024-03-17T05:01:25;7.50;99.90
31695;DHT22;18289;51.330;4.946;2024-03-17T05:03:53;7.50;99.90
31695;DHT22;18289;51.330;4.946;2024-03-17T05:06:19;7.60;99.90
31695;DHT22;18289;51.330;4.946;2024-03-17T05:08:45;7.60;99.90
31695;DHT22;18289;51.330;4.946;2024-03-17T05:11:11;7.60;99.90
31695;DHT22;18289;51.330;4.946;2024-03-17T05:13:37;7.60;99.90
31695;DHT22;18289;51.330;4.946;2024-03-17T05:16:06;7.50;99.90
31695;DHT22;18289;51.330;4.946;2024-03-17T05:18:32;7.50;99.90
31695;DHT22;18289;51.330;4.946;2024-03-17T05:20:58;7.50;99.90
31695;DHT22;18289;51.330;4.946;2024-03-17T05:23:28;7.50;99.90
31695;DHT22;18289;51.330;4.946;2024-03-17T05:25:54;7.50;99.90
31695;DHT22;18289;51.330;4.946;2024-03-17T05:28:20;7.30;99.90
31695;DHT22;18289;51.330;4.946;2024-03-17T05:30:46;7.40;99.90
31695;DHT22;18289;51.330;4.946;2024-03-17T05:33:13;7.40;99.90
31695;DHT22;18289;51.330;4.946;2024-03-17T05:35:39;7.40;99.90
31695;DHT22;18289;51.330;4.946;2024-03-17T05:38:04;7.30;99.90
31695;DHT22;18289;51.330;4.946;2024-03-17T05:40:30;7.30;99.90
31695;DHT22;18289;51.330;4.946;2024-03-17T05:42:56;7.40;99.90
31695;DHT22;18289;51.330;4.946;2024-03-17T05:45:22;7.40;99.90
31695;DHT22;18289;51.330;4.946;2024-03-17T05:47:50;7.30;99.90
31695;DHT22;18289;51.330;4.946;2024-03-17T05:50:15;7.50;99.90
31695;DHT22;18289;51.330;4.946;2024-03-17T05:52:41;7.50;99.90
31695;DHT22;18289;51.330;4.946;2024-03-17T05:55:07;7.50;99.90
31695;DHT22;18289;51.330;4.946;2024-03-17T05:57:33;7.50;99.90
31695;DHT22;18289;51.330;4.946;2024-03-17T05:59:58;7.50;99.90
31695;DHT22;18289;51.330;4.946;2024-03-17T06:02:24;7.60;99.90
31695;DHT22;18289;51.330;4.946;2024-03-17T06:04:50;7.60;99.90
31695;DHT22;18289;51.330;4.946;2024-03-17T06:07:15;7.70;99.90
31695;DHT22;18289;51.330;4.946;2024-03-17T06:09:41;7.80;99.90
31695;DHT22;18289;51.330;4.946;2024-03-17T06:12:07;7.90;99.90
31695;DHT22;18289;51.330;4.946;2024-03-17T06:14:33;7.90;99.90
31695;DHT22;18289;51.330;4.946;2024-03-17T06:16:59;8.10;99.90
31695;DHT22;18289;51.330;4.946;2024-03-17T06:19:25;8.00;99.90
31695;DHT22;18289;51.330;4.946;2024-03-17T06:21:51;8.10;99.90
31695;DHT22;18289;51.330;4.946;2024-03-17T06:24:17;8.10;99.90
31695;DHT22;18289;51.330;4.946;2024-03-17T06:26:42;8.20;99.90
31695;DHT22;18289;51.330;4.946;2024-03-17T06:29:08;8.20;99.90
31695;DHT22;18289;51.330;4.946;2024-03-17T06:31:34;8.40;99.90
31695;DHT22;18289;51.330;4.946;2024-03-17T06:33:59;8.40;99.90
31695;DHT22;18289;51.330;4.946;2024-03-17T06:36:25;8.50;99.90
31695;DHT22;18289;51.330;4.946;2024-03-17T06:38:51;8.60;99.90
31695;DHT22;18289;51.330;4.946;2024-03-17T06:41:16;8.60;99.90
31695;DHT22;18289;51.330;4.946;2024-03-17T06:43:42;8.80;99.90
31695;DHT22;18289;51.330;4.946;2024-03-17T06:46:09;8.80;99.90
31695;DHT22;18289;51.330;4.946;2024-03-17T06:48:35;8.80;99.90
31695;DHT22;18289;51.330;4.946;2024-03-17T06:51:01;8.90;99.90
31695;DHT22;18289;51.330;4.946;2024-03-17T06:53:26;9.00;99.90
31695;DHT22;18289;51.330;4.946;2024-03-17T06:55:56;9.00;99.90
31695;DHT22;18289;51.330;4.946;2024-03-17T06:58:23;9.10;99.90
31695;DHT22;18289;51.330;4.946;2024-03-17T07:00:55;8.90;99.90
31695;DHT22;18289;51.330;4.946;2024-03-17T07:03:23;9.00;99.90
31695;DHT22;18289;51.330;4.946;2024-03-17T07:05:55;8.90;99.90
31695;DHT22;18289;51.330;4.946;2024-03-17T07:08:21;8.90;99.90
31695;DHT22;18289;51.330;4.946;2024-03-17T07:11:01;8.90;99.90
31695;DHT22;18289;51.330;4.946;2024-03-17T07:13:32;9.00;99.90
31695;DHT22;18289;51.330;4.946;2024-03-17T07:16:00;9.00;99.90
31695;DHT22;18289;51.330;4.946;2024-03-17T07:18:27;9.20;99.90
31695;DHT22;18289;51.330;4.946;2024-03-17T07:20:56;9.20;99.90
31695;DHT22;18289;51.330;4.946;2024-03-17T07:23:23;9.30;99.90
31695;DHT22;18289;51.330;4.946;2024-03-17T07:25:57;9.30;99.90
31695;DHT22;18289;51.330;4.946;2024-03-17T07:28:23;9.30;99.90
31695;DHT22;18289;51.330;4.946;2024-03-17T07:30:54;9.40;99.90
31695;DHT22;18289;51.330;4.946;2024-03-17T07:33:21;9.50;99.90
31695;DHT22;18289;51.330;4.946;2024-03-17T07:35:57;9.50;99.90
31695;DHT22;18289;51.330;4.946;2024-03-17T07:38:25;9.60;99.90
31695;DHT22;18289;51.330;4.946;2024-03-17T07:41:08;9.60;99.90
31695;DHT22;18289;51.330;4.946;2024-03-17T07:43:36;9.70;99.90
31695;DHT22;18289;51.330;4.946;2024-03-17T07:46:03;9.70;99.90
31695;DHT22;18289;51.330;4.946;2024-03-17T07:48:30;9.80;99.90
31695;DHT22;18289;51.330;4.946;2024-03-17T07:50:58;9.90;99.90
31695;DHT22;18289;51.330;4.946;2024-03-17T07:53:26;9.80;99.90
31695;DHT22;18289;51.330;4.946;2024-03-17T07:56:05;9.90;99.90
31695;DHT22;18289;51.330;4.946;2024-03-17T07:58:32;9.80;99.90
31695;DHT22;18289;51.330;4.946;2024-03-17T08:01:02;9.90;99.90
31695;DHT22;18289;51.330;4.946;2024-03-17T08:03:29;10.00;99.90
31695;DHT22;18289;51.330;4.946;2024-03-17T08:05:57;10.10;99.90
31695;DHT22;18289;51.330;4.946;2024-03-17T08:08:23;10.10;99.90
31695;DHT22;18289;51.330;4.946;2024-03-17T08:10:49;10.10;99.90
31695;DHT22;18289;51.330;4.946;2024-03-17T08:13:16;10.20;99.90
31695;DHT22;18289;51.330;4.946;2024-03-17T08:15:43;10.10;99.90
31695;DHT22;18289;51.330;4.946;2024-03-17T08:18:09;10.20;99.90
31695;DHT22;18289;51.330;4.946;2024-03-17T08:20:39;10.30;99.90
31695;DHT22;18289;51.330;4.946;2024-03-17T08:23:05;10.40;99.90
31695;DHT22;18289;51.330;4.946;2024-03-17T08:25:34;10.60;99.90
31695;DHT22;18289;51.330;4.946;2024-03-17T08:28:00;10.70;99.90
31695;DHT22;18289;51.330;4.946;2024-03-17T08:30:26;10.80;99.90
31695;DHT22;18289;51.330;4.946;2024-03-17T08:32:52;10.90;99.90
31695;DHT22;18289;51.330;4.946;2024-03-17T08:35:17;11.20;99.90
31695;DHT22;18289;51.330;4.946;2024-03-17T08:37:43;11.50;99.90
31695;DHT22;18289;51.330;4.946;2024-03-17T08:40:11;11.70;99.90
31695;DHT22;18289;51.330;4.946;2024-03-17T08:42:37;11.80;99.90
31695;DHT22;18289;51.330;4.946;2024-03-17T08:45:03;11.80;99.90
31695;DHT22;18289;51.330;4.946;2024-03-17T08:47:29;11.80;99.90
31695;DHT22;18289;51.330;4.946;2024-03-17T08:49:55;12.10;99.90
31695;DHT22;18289;51.330;4.946;2024-03-17T08:52:21;12.10;99.90
31695;DHT22;18289;51.330;4.946;2024-03-17T08:54:47;12.40;99.90
31695;DHT22;18289;51.330;4.946;2024-03-17T08:57:16;12.40;99.90
31695;DHT22;18289;51.330;4.946;2024-03-17T08:59:42;12.70;99.90
31695;DHT22;18289;51.330;4.946;2024-03-17T09:02:12;13.00;99.90
31695;DHT22;18289;51.330;4.946;2024-03-17T09:04:39;13.20;99.90
31695;DHT22;18289;51.330;4.946;2024-03-17T09:07:05;13.40;99.90
31695;DHT22;18289;51.330;4.946;2024-03-17T09:09:30;13.90;99.90
31695;DHT22;18289;51.330;4.946;2024-03-17T09:11:56;14.10;99.90
31695;DHT22;18289;51.330;4.946;2024-03-17T09:14:22;14.40;99.90
31695;DHT22;18289;51.330;4.946;2024-03-17T09:16:48;14.80;99.90
31695;DHT22;18289;51.330;4.946;2024-03-17T09:19:14;15.00;99.90
31695;DHT22;18289;51.330;4.946;2024-03-17T09:21:39;15.10;99.90
31695;DHT22;18289;51.330;4.946;2024-03-17T09:24:06;15.10;99.90
31695;DHT22;18289;51.330;4.946;2024-03-17T09:26:35;15.30;99.90
31695;DHT22;18289;51.330;4.946;2024-03-17T09:29:01;15.30;99.90
31695;DHT22;18289;51.330;4.946;2024-03-17T09:31:27;15.00;99.90
31695;DHT22;18289;51.330;4.946;2024-03-17T09:33:53;14.90;99.90
31695;DHT22;18289;51.330;4.946;2024-03-17T09:36:18;15.00;99.90
31695;DHT22;18289;51.330;4.946;2024-03-17T09:38:44;15.30;99.90
31695;DHT22;18289;51.330;4.946;2024-03-17T09:41:23;15.20;99.90
31695;DHT22;18289;51.330;4.946;2024-03-17T09:43:59;15.40;99.90
31695;DHT22;18289;51.330;4.946;2024-03-17T09:46:26;15.30;99.90
31695;DHT22;18289;51.330;4.946;2024-03-17T09:48:55;15.40;99.90
31695;DHT22;18289;51.330;4.946;2024-03-17T09:51:24;15.50;99.90
31695;DHT22;18289;51.330;4.946;2024-03-17T09:53:51;15.30;99.90
31695;DHT22;18289;51.330;4.946;2024-03-17T09:56:21;15.30;99.90
31695;DHT22;18289;51.330;4.946;2024-03-17T09:58:51;15.20;99.90
31695;DHT22;18289;51.330;4.946;2024-03-17T10:01:17;15.10;99.90
31695;DHT22;18289;51.330;4.946;2024-03-17T10:03:50;15.10;99.90
31695;DHT22;18289;51.330;4.946;2024-03-17T10:06:25;15.20;99.90
31695;DHT22;18289;51.330;4.946;2024-03-17T10:09:02;15.30;99.90
31695;DHT22;18289;51.330;4.946;2024-03-17T10:11:35;15.50;99.90
31695;DHT22;18289;51.330;4.946;2024-03-17T10:14:06;15.70;99.90
31695;DHT22;18289;51.330;4.946;2024-03-17T10:16:34;15.80;99.90
31695;DHT22;18289;51.330;4.946;2024-03-17T10:21:45;16.00;99.90
31695;DHT22;18289;51.330;4.946;2024-03-17T10:24:19;16.00;99.90
31695;DHT22;18289;51.330;4.946;2024-03-17T10:26:47;15.80;99.90
31695;DHT22;18289;51.330;4.946;2024-03-17T10:31:57;15.70;99.90
31695;DHT22;18289;51.330;4.946;2024-03-17T10:34:25;15.60;99.90
31695;DHT22;18289;51.330;4.946;2024-03-17T10:37:11;15.60;99.90
31695;DHT22;18289;51.330;4.946;2024-03-17T10:39:40;15.60;99.90
31695;DHT22;18289;51.330;4.946;2024-03-17T10:42:08;15.60;99.90
31695;DHT22;18289;51.330;4.946;2024-03-17T10:44:43;15.80;99.90
31695;DHT22;18289;51.330;4.946;2024-03-17T10:47:26;15.90;99.90
31695;DHT22;18289;51.330;4.946;2024-03-17T10:49:54;15.80;99.90
31695;DHT22;18289;51.330;4.946;2024-03-17T10:52:20;15.60;99.90
31695;DHT22;18289;51.330;4.946;2024-03-17T10:54:51;15.50;99.90
31695;DHT22;18289;51.330;4.946;2024-03-17T10:59:48;15.20;99.90
31695;DHT22;18289;51.330;4.946;2024-03-17T11:02:26;15.00;99.90
31695;DHT22;18289;51.330;4.946;2024-03-17T11:05:02;15.00;99.90
31695;DHT22;18289;51.330;4.946;2024-03-17T11:07:28;15.00;99.90
31695;DHT22;18289;51.330;4.946;2024-03-17T11:09:58;14.90;99.90
31695;DHT22;18289;51.330;4.946;2024-03-17T11:20:43;14.80;99.90
31695;DHT22;18289;51.330;4.946;2024-03-17T11:23:30;14.90;99.90
31695;DHT22;18289;51.330;4.946;2024-03-17T11:25:57;15.00;99.90
31695;DHT22;18289;51.330;4.946;2024-03-17T11:31:48;15.10;99.90
31695;DHT22;18289;51.330;4.946;2024-03-17T11:34:32;15.10;99.90
31695;DHT22;18289;51.330;4.946;2024-03-17T11:37:00;15.20;99.90
31695;DHT22;18289;51.330;4.946;2024-03-17T11:39:48;15.40;99.90
31695;DHT22;18289;51.330;4.946;2024-03-17T11:42:22;15.30;99.90
31695;DHT22;18289;51.330;4.946;2024-03-17T11:45:03;15.40;99.90
31695;DHT22;18289;51.330;4.946;2024-03-17T11:47:40;15.40;99.90
31695;DHT22;18289;51.330;4.946;2024-03-17T11:50:07;15.40;99.90
31695;DHT22;18289;51.330;4.946;2024-03-17T11:52:35;15.40;99.90
31695;DHT22;18289;51.330;4.946;2024-03-17T11:55:02;15.40;99.90
31695;DHT22;18289;51.330;4.946;2024-03-17T11:57:28;15.30;99.90
31695;DHT22;18289;51.330;4.946;2024-03-17T11:59:54;15.20;99.90
31695;DHT22;18289;51.330;4.946;2024-03-17T12:02:26;15.20;99.90
31695;DHT22;18289;51.330;4.946;2024-03-17T12:04:53;15.20;99.90
31695;DHT22;18289;51.330;4.946;2024-03-17T12:07:21;15.40;99.90
31695;DHT22;18289;51.330;4.946;2024-03-17T12:09:50;15.40;99.90
31695;DHT22;18289;51.330;4.946;2024-03-17T12:12:22;15.40;99.90
31695;DHT22;18289;51.330;4.946;2024-03-17T12:14:49;15.30;99.90
31695;DHT22;18289;51.330;4.946;2024-03-17T12:17:21;15.20;99.90
31695;DHT22;18289;51.330;4.946;2024-03-17T12:19:47;15.30;99.90
31695;DHT22;18289;51.330;4.946;2024-03-17T12:22:18;15.40;99.90
31695;DHT22;18289;51.330;4.946;2024-03-17T12:24:50;15.70;99.90
31695;DHT22;18289;51.330;4.946;2024-03-17T12:27:23;16.10;99.90
31695;DHT22;18289;51.330;4.946;2024-03-17T12:29:51;16.30;99.90
31695;DHT22;18289;51.330;4.946;2024-03-17T12:32:22;16.40;99.90
31695;DHT22;18289;51.330;4.946;2024-03-17T12:34:52;16.20;99.90
31695;DHT22;18289;51.330;4.946;2024-03-17T12:37:20;16.10;99.90
31695;DHT22;18289;51.330;4.946;2024-03-17T12:39:46;16.10;99.90
31695;DHT22;18289;51.330;4.946;2024-03-17T12:42:14;16.10;99.90
31695;DHT22;18289;51.330;4.946;2024-03-17T12:44:47;16.10;99.90
31695;DHT22;18289;51.330;4.946;2024-03-17T12:47:24;16.30;99.90
31695;DHT22;18289;51.330;4.946;2024-03-17T12:49:57;16.30;99.90
31695;DHT22;18289;51.330;4.946;2024-03-17T12:52:31;16.60;99.90
31695;DHT22;18289;51.330;4.946;2024-03-17T12:55:06;16.60;99.90
31695;DHT22;18289;51.330;4.946;2024-03-17T12:57:52;16.60;99.90
31695;DHT22;18289;51.330;4.946;2024-03-17T13:00:36;16.40;99.90
31695;DHT22;18289;51.330;4.946;2024-03-17T13:03:04;16.40;99.90
31695;DHT22;18289;51.330;4.946;2024-03-17T13:05:34;16.40;99.90
31695;DHT22;18289;51.330;4.946;2024-03-17T13:08:00;16.60;99.90
31695;DHT22;18289;51.330;4.946;2024-03-17T13:10:28;16.60;99.90
31695;DHT22;18289;51.330;4.946;2024-03-17T13:13:04;16.80;99.90
31695;DHT22;18289;51.330;4.946;2024-03-17T13:15:31;16.90;99.90
31695;DHT22;18289;51.330;4.946;2024-03-17T13:17:59;16.90;99.90
31695;DHT22;18289;51.330;4.946;2024-03-17T13:20:25;16.80;99.90
31695;DHT22;18289;51.330;4.946;2024-03-17T13:22:51;16.80;99.90
31695;DHT22;18289;51.330;4.946;2024-03-17T13:25:19;16.50;99.90
31695;DHT22;18289;51.330;4.946;2024-03-17T13:27:48;16.20;99.90
31695;DHT22;18289;51.330;4.946;2024-03-17T13:30:17;16.20;99.90
31695;DHT22;18289;51.330;4.946;2024-03-17T13:32:43;16.30;99.90
31695;DHT22;18289;51.330;4.946;2024-03-17T13:35:15;16.30;99.90
31695;DHT22;18289;51.330;4.946;2024-03-17T13:37:41;16.70;99.90
31695;DHT22;18289;51.330;4.946;2024-03-17T13:40:07;16.90;99.90
31695;DHT22;18289;51.330;4.946;2024-03-17T13:42:35;17.60;99.90
31695;DHT22;18289;51.330;4.946;2024-03-17T13:45:01;18.60;99.90
31695;DHT22;18289;51.330;4.946;2024-03-17T13:47:27;19.10;99.90
31695;DHT22;18289;51.330;4.946;2024-03-17T13:49:53;19.60;99.90
31695;DHT22;18289;51.330;4.946;2024-03-17T13:52:19;19.70;99.90
31695;DHT22;18289;51.330;4.946;2024-03-17T13:54:45;19.60;99.90
31695;DHT22;18289;51.330;4.946;2024-03-17T13:57:10;19.80;99.90
31695;DHT22;18289;51.330;4.946;2024-03-17T13:59:37;19.40;99.90
31695;DHT22;18289;51.330;4.946;2024-03-17T14:02:03;19.00;99.90
31695;DHT22;18289;51.330;4.946;2024-03-17T14:04:30;18.70;99.90
31695;DHT22;18289;51.330;4.946;2024-03-17T14:06:56;18.20;99.90
31695;DHT22;18289;51.330;4.946;2024-03-17T14:09:22;18.10;99.90
31695;DHT22;18289;51.330;4.946;2024-03-17T14:11:48;17.70;99.90
31695;DHT22;18289;51.330;4.946;2024-03-17T14:16:43;17.60;99.90
31695;DHT22;18289;51.330;4.946;2024-03-17T14:19:09;17.80;99.90
31695;DHT22;18289;51.330;4.946;2024-03-17T14:21:35;17.70;99.90
31695;DHT22;18289;51.330;4.946;2024-03-17T14:24:01;17.60;99.90
31695;DHT22;18289;51.330;4.946;2024-03-17T14:26:31;17.80;99.90
31695;DHT22;18289;51.330;4.946;2024-03-17T14:28:57;17.80;99.90
31695;DHT22;18289;51.330;4.946;2024-03-17T14:31:25;17.70;99.90
31695;DHT22;18289;51.330;4.946;2024-03-17T14:33:51;17.30;99.90
31695;DHT22;18289;51.330;4.946;2024-03-17T14:36:17;17.30;99.90
31695;DHT22;18289;51.330;4.946;2024-03-17T14:38:43;17.20;99.90
31695;DHT22;18289;51.330;4.946;2024-03-17T14:41:09;17.20;99.90
31695;DHT22;18289;51.330;4.946;2024-03-17T14:43:36;17.10;99.90
31695;DHT22;18289;51.330;4.946;2024-03-17T14:46:04;17.00;99.90
31695;DHT22;18289;51.330;4.946;2024-03-17T14:48:30;16.90;99.90
31695;DHT22;18289;51.330;4.946;2024-03-17T14:50:55;17.00;99.90
31695;DHT22;18289;51.330;4.946;2024-03-17T14:53:21;17.10;99.90
31695;DHT22;18289;51.330;4.946;2024-03-17T14:58:17;16.70;99.90
31695;DHT22;18289;51.330;4.946;2024-03-17T15:00:43;16.60;99.90
31695;DHT22;18289;51.330;4.946;2024-03-17T15:03:09;16.60;99.90
31695;DHT22;18289;51.330;4.946;2024-03-17T15:05:34;16.50;99.90
31695;DHT22;18289;51.330;4.946;2024-03-17T15:08:00;16.20;99.90
31695;DHT22;18289;51.330;4.946;2024-03-17T15:10:27;15.80;99.90
31695;DHT22;18289;51.330;4.946;2024-03-17T15:12:53;15.70;99.90
31695;DHT22;18289;51.330;4.946;2024-03-17T15:15:19;15.60;99.90
31695;DHT22;18289;51.330;4.946;2024-03-17T15:17:45;15.60;99.90
31695;DHT22;18289;51.330;4.946;2024-03-17T15:20:11;15.50;99.90
31695;DHT22;18289;51.330;4.946;2024-03-17T15:22:45;15.40;99.90
31695;DHT22;18289;51.330;4.946;2024-03-17T15:25:11;15.40;99.90
31695;DHT22;18289;51.330;4.946;2024-03-17T15:27:39;15.30;99.90
31695;DHT22;18289;51.330;4.946;2024-03-17T15:30:05;15.20;99.90
31695;DHT22;18289;51.330;4.946;2024-03-17T15:32:32;15.10;99.90
31695;DHT22;18289;51.330;4.946;2024-03-17T15:34:57;15.00;99.90
31695;DHT22;18289;51.330;4.946;2024-03-17T15:37:24;15.00;99.90
31695;DHT22;18289;51.330;4.946;2024-03-17T15:39:50;15.00;99.90
31695;DHT22;18289;51.330;4.946;2024-03-17T15:42:16;15.00;99.90
31695;DHT22;18289;51.330;4.946;2024-03-17T15:44:42;14.80;99.90
31695;DHT22;18289;51.330;4.946;2024-03-17T15:47:08;14.70;99.90
31695;DHT22;18289;51.330;4.946;2024-03-17T15:49:34;14.60;99.90
31695;DHT22;18289;51.330;4.946;2024-03-17T15:51:59;14.60;99.90
31695;DHT22;18289;51.330;4.946;2024-03-17T15:54:25;14.50;99.90
31695;DHT22;18289;51.330;4.946;2024-03-17T15:56:51;14.50;99.90
31695;DHT22;18289;51.330;4.946;2024-03-17T16:01:44;14.30;99.90
31695;DHT22;18289;51.330;4.946;2024-03-17T16:04:10;14.10;99.90
31695;DHT22;18289;51.330;4.946;2024-03-17T16:06:37;14.00;99.90
31695;DHT22;18289;51.330;4.946;2024-03-17T16:09:05;13.90;99.90